Markham, Washington
Current Conditions -  °F | °C
As of 4:53 PM on Saturday 22 Nov 2014 (Local Time) from KHQM Reporting Station
Scattered Clouds Scattered Clouds  
Wind Chill: 50°   Ceiling: Unl
Heat Index: 50°   Visibility: 7mi
Dew Point: 43°   Wind: 6mph
Humidity: 77%   Direction: 260°W
Pressure: 30.02"   Gusts: NA
Location:  47.1445°N, 123.771°W
Report Text: KHQM 230053Z AUTO 26005KT 7SM SCT038 SCT050 10/06 A3002 RMK AO2 SLP169 T01000061
Loading
Personal Weather Stations






























Interactive Weather Map New forecast layout! Learn more

10-Day Weather Forecast

Advertisements
Track Severe Weather on mobile